createdAt,value
2022-10-11T00:00:38.939Z,90.4
2022-10-11T00:01:39.178Z,90.4
2022-10-11T00:02:38.928Z,90.3
2022-10-11T00:03:38.936Z,90.3
2022-10-11T00:04:38.939Z,90.3
2022-10-11T00:05:38.946Z,90.4
2022-10-11T00:06:38.964Z,90.5
2022-10-11T00:07:38.983Z,90.3
2022-10-11T00:08:38.982Z,90.3
2022-10-11T00:09:39.001Z,90.3
2022-10-11T00:10:39.012Z,90.5
2022-10-11T00:11:39.027Z,90.3
2022-10-11T00:12:39.038Z,90.3
2022-10-11T00:13:39.050Z,90.2
2022-10-11T00:14:39.051Z,90.1
2022-10-11T00:15:39.063Z,90.2
2022-10-11T00:16:39.080Z,90.0
2022-10-11T00:17:39.079Z,90.2
2022-10-11T00:18:39.110Z,90.2
2022-10-11T00:19:39.099Z,90.2
2022-10-11T00:20:39.122Z,90.2
2022-10-11T00:21:39.131Z,90.2
2022-10-11T00:22:39.143Z,90.2
2022-10-11T00:23:39.152Z,90.3
2022-10-11T00:24:39.167Z,90.4
2022-10-11T00:25:39.188Z,90.4
2022-10-11T00:26:47.245Z,90.3
2022-10-11T00:27:39.205Z,90.2
2022-10-11T00:28:39.454Z,90.3
2022-10-11T00:29:39.213Z,90.2
2022-10-11T00:30:39.225Z,90.4
2022-10-11T00:31:39.234Z,90.5
2022-10-11T00:32:39.253Z,90.4
2022-10-11T00:33:39.266Z,90.5
2022-10-11T00:34:39.273Z,90.3
2022-10-11T00:35:39.273Z,90.4
2022-10-11T00:36:39.290Z,90.3
2022-10-11T00:37:39.297Z,90.3
2022-10-11T00:38:39.302Z,90.2
2022-10-11T00:39:39.319Z,90.3
2022-10-11T00:40:39.320Z,90.3
2022-10-11T00:58:39.852Z,90.3
2022-10-11T00:59:39.514Z,90.3
2022-10-11T01:00:39.518Z,90.4
2022-10-11T01:01:39.696Z,90.4
2022-10-11T01:02:39.537Z,90.4
2022-10-11T01:03:39.541Z,90.4
2022-10-11T01:04:39.551Z,90.6
2022-10-11T01:05:39.546Z,90.7
2022-10-11T01:06:39.563Z,90.7
2022-10-11T01:07:39.564Z,90.8
2022-10-11T01:08:39.589Z,90.7
2022-10-11T01:09:39.598Z,90.7
2022-10-11T01:10:39.605Z,90.7
2022-10-11T01:11:39.616Z,90.9
2022-10-11T01:12:39.637Z,91.0
2022-10-11T01:13:39.639Z,91.0
2022-10-11T01:14:39.653Z,91.0
2022-10-11T01:15:39.674Z,91.0
2022-10-11T01:16:39.685Z,91.0
2022-10-11T01:17:39.693Z,90.9
2022-10-11T01:18:39.696Z,90.9
2022-10-11T01:19:39.708Z,90.9
2022-10-11T01:20:39.725Z,90.9
2022-10-11T01:21:39.738Z,90.8
2022-10-11T01:22:39.738Z,90.8
2022-10-11T01:23:39.760Z,90.6
2022-10-11T01:24:39.761Z,90.6
2022-10-11T01:25:39.779Z,90.5
2022-10-11T01:26:39.781Z,90.4
2022-10-11T01:27:39.794Z,90.4
2022-10-11T01:28:40.273Z,90.3
2022-10-11T01:29:39.810Z,90.3
2022-10-11T01:30:39.818Z,90.3
2022-10-11T01:31:39.853Z,90.2
2022-10-11T01:32:39.850Z,90.1
2022-10-11T01:33:39.862Z,89.9
2022-10-11T01:34:39.884Z,89.8
2022-10-11T01:35:39.884Z,89.7
2022-10-11T01:36:39.885Z,89.6
2022-10-11T01:37:39.900Z,89.6
2022-10-11T01:38:39.912Z,89.6
2022-10-11T01:39:39.921Z,89.5
2022-10-11T01:40:39.932Z,89.6
2022-10-11T01:41:39.939Z,89.6
2022-10-11T01:42:39.945Z,89.6
2022-10-11T01:43:39.961Z,89.6
2022-10-11T01:44:39.968Z,89.6
2022-10-11T01:45:39.970Z,89.7
2022-10-11T01:46:40.002Z,89.7
2022-10-11T01:47:40.008Z,89.8
2022-10-11T01:48:40.014Z,89.8
2022-10-11T01:49:40.025Z,89.8
2022-10-11T01:50:40.043Z,89.9
2022-10-11T01:51:47.727Z,89.8
2022-10-11T01:52:40.062Z,89.8
2022-10-11T01:53:40.076Z,89.8
2022-10-11T01:55:40.101Z,89.9
2022-10-11T01:56:40.125Z,89.8
2022-10-11T01:57:40.134Z,89.8
2022-10-11T01:58:40.144Z,89.8
2022-10-11T01:59:40.151Z,89.8
2022-10-11T02:00:40.164Z,89.8
2022-10-11T02:01:40.389Z,89.8
2022-10-11T02:02:40.191Z,89.8
2022-10-11T02:03:40.202Z,89.9
2022-10-11T02:04:40.214Z,89.8
2022-10-11T02:05:40.241Z,89.8
2022-10-11T02:06:40.238Z,89.8
2022-10-11T02:07:40.248Z,89.7
2022-10-11T02:08:40.257Z,89.7
2022-10-11T02:09:40.272Z,89.7
2022-10-11T02:10:40.287Z,89.8
2022-10-11T02:11:40.297Z,89.8
2022-10-11T02:12:40.298Z,89.7
2022-10-11T02:13:40.305Z,89.8
2022-10-11T02:14:40.325Z,89.9
2022-10-11T02:15:40.521Z,89.9
2022-10-11T02:16:40.445Z,89.9
2022-10-11T02:17:40.354Z,89.9
2022-10-11T02:18:40.370Z,90.0
2022-10-11T02:19:40.382Z,89.9
2022-10-11T02:20:40.394Z,89.9
2022-10-11T02:21:40.412Z,90.0
2022-10-11T02:22:40.423Z,90.1
2022-10-11T02:23:40.438Z,90.1
2022-10-11T02:24:40.444Z,90.3
2022-10-11T02:25:40.491Z,90.3
2022-10-11T02:26:40.463Z,90.3
2022-10-11T02:27:40.474Z,90.3
2022-10-11T02:28:40.751Z,90.1
2022-10-11T02:29:40.494Z,90.0
2022-10-11T02:30:40.509Z,90.0
2022-10-11T02:31:40.518Z,90.0
2022-10-11T02:32:40.527Z,90.0
2022-10-11T02:33:40.528Z,90.0
2022-10-11T02:34:40.553Z,90.0
2022-10-11T02:35:40.553Z,89.9
2022-10-11T02:36:40.561Z,89.9
2022-10-11T02:37:40.576Z,89.8
2022-10-11T02:38:40.584Z,89.8
2022-10-11T02:39:40.598Z,89.6
2022-10-11T02:40:40.620Z,89.6
2022-10-11T02:41:40.624Z,89.6
2022-10-11T02:42:40.639Z,89.6
2022-10-11T02:43:40.646Z,89.6
2022-10-11T02:44:40.666Z,89.8
2022-10-11T02:45:40.657Z,89.8
2022-10-11T02:46:40.669Z,89.7
2022-10-11T02:47:40.685Z,89.8
2022-10-11T02:48:40.694Z,89.8
2022-10-11T02:49:40.707Z,89.9
2022-10-11T02:50:40.723Z,89.7
2022-10-11T02:51:40.738Z,89.6
2022-10-11T02:52:40.735Z,89.7
2022-10-11T02:53:40.754Z,89.7
2022-10-11T02:54:40.755Z,89.7
2022-10-11T02:55:40.777Z,89.8
2022-10-11T02:56:40.781Z,89.7
2022-10-11T02:57:40.792Z,89.8
2022-10-11T02:58:40.815Z,89.7
2022-10-11T02:59:40.812Z,89.9
2022-10-11T03:00:40.826Z,89.7
2022-10-11T03:01:41.028Z,89.7
2022-10-11T03:02:40.841Z,89.6
2022-10-11T03:03:40.848Z,89.6
2022-10-11T03:04:40.855Z,89.7
2022-10-11T03:05:40.872Z,89.9
2022-10-11T03:06:40.886Z,90.0
2022-10-11T03:07:40.889Z,89.8
2022-10-11T03:08:40.893Z,89.8
2022-10-11T03:09:40.905Z,89.7
2022-10-11T03:10:41.040Z,89.7
2022-10-11T03:11:41.041Z,89.7
2022-10-11T03:12:40.945Z,89.7
2022-10-11T03:13:40.951Z,89.8
2022-10-11T03:14:41.009Z,89.8
2022-10-11T03:15:40.973Z,89.8
2022-10-11T03:16:40.979Z,90.0
2022-10-11T03:17:41.007Z,89.9
2022-10-11T03:18:41.016Z,89.9
2022-10-11T03:19:41.029Z,89.9
2022-10-11T03:20:41.031Z,90.1
2022-10-11T03:21:41.047Z,90.1
2022-10-11T03:22:41.050Z,90.1
2022-10-11T03:23:41.053Z,90.0
2022-10-11T03:24:41.060Z,90.1
2022-10-11T03:25:41.082Z,90.0
2022-10-11T03:26:41.104Z,90.0
2022-10-11T03:27:41.104Z,90.0
2022-10-11T03:28:41.608Z,90.1
2022-10-11T03:29:41.127Z,90.2
2022-10-11T03:30:41.144Z,90.3
2022-10-11T03:31:41.147Z,90.5
2022-10-11T03:32:41.154Z,90.6
2022-10-11T03:33:41.160Z,90.7
2022-10-11T03:34:41.167Z,90.7
2022-10-11T03:35:41.181Z,90.8
2022-10-11T03:36:41.189Z,90.7
2022-10-11T03:37:41.205Z,90.8
2022-10-11T03:38:41.235Z,90.7
2022-10-11T03:39:41.251Z,90.9
2022-10-11T03:40:41.283Z,90.9
2022-10-11T03:41:41.257Z,90.8
2022-10-11T03:42:41.259Z,90.9
2022-10-11T03:43:41.253Z,90.8
2022-10-11T03:44:41.265Z,90.8
2022-10-11T03:45:41.279Z,90.7
2022-10-11T03:46:41.278Z,90.9
2022-10-11T03:47:41.284Z,90.6
2022-10-11T03:48:41.332Z,90.7
2022-10-11T03:49:44.038Z,90.6
2022-10-11T03:50:41.317Z,90.8
2022-10-11T03:51:41.333Z,90.9
2022-10-11T03:52:41.342Z,90.7
2022-10-11T03:53:41.381Z,90.8
2022-10-11T03:54:41.452Z,90.7
2022-10-11T03:55:41.372Z,90.7
2022-10-11T03:56:41.473Z,90.7
2022-10-11T03:57:41.396Z,90.5
2022-10-11T03:58:41.407Z,90.5
2022-10-11T03:59:41.440Z,90.6
2022-10-11T04:00:41.435Z,90.7
2022-10-11T04:01:41.618Z,90.4
2022-10-11T04:02:41.459Z,90.1
2022-10-11T04:03:41.489Z,90.1
2022-10-11T04:04:41.476Z,90.2
2022-10-11T04:05:41.485Z,90.4
2022-10-11T04:06:41.493Z,90.2
2022-10-11T04:07:41.500Z,90.4
2022-10-11T04:08:41.520Z,90.4
2022-10-11T04:09:41.518Z,90.3
2022-10-11T04:10:41.529Z,90.2
2022-10-11T04:11:41.541Z,90.0
2022-10-11T04:12:41.549Z,90.1
2022-10-11T04:13:41.599Z,89.9
2022-10-11T04:14:41.583Z,89.9
2022-10-11T04:15:41.582Z,90.0
2022-10-11T04:16:41.586Z,90.0
2022-10-11T04:17:41.722Z,89.9
2022-10-11T04:18:41.607Z,89.7
2022-10-11T04:19:41.599Z,89.5
2022-10-11T04:20:41.622Z,89.4
2022-10-11T04:21:41.638Z,89.1
2022-10-11T04:22:41.650Z,89.2
2022-10-11T04:23:41.652Z,89.2
2022-10-11T04:24:41.674Z,89.3
2022-10-11T04:25:41.682Z,89.2
2022-10-11T04:26:41.689Z,89.1
2022-10-11T04:27:41.833Z,89.1
2022-10-11T04:28:41.939Z,89.0
2022-10-11T04:29:41.726Z,89.0
2022-10-11T04:30:41.745Z,89.1
2022-10-11T04:31:41.748Z,89.2
2022-10-11T04:32:41.755Z,89.1
2022-10-11T04:33:41.766Z,89.2
2022-10-11T04:34:41.782Z,89.3
2022-10-11T04:35:41.801Z,89.2
2022-10-11T04:36:50.082Z,89.2
2022-10-11T04:37:41.823Z,89.2
2022-10-11T04:38:41.826Z,89.4
2022-10-11T04:39:41.843Z,89.3
2022-10-11T04:40:41.860Z,89.3
2022-10-11T04:41:41.864Z,89.4
2022-10-11T04:42:41.885Z,89.4
2022-10-11T04:43:41.883Z,89.5
2022-10-11T04:44:41.906Z,89.5
2022-10-11T04:45:41.910Z,89.5
2022-10-11T04:46:41.942Z,89.6
2022-10-11T04:47:41.931Z,89.7
2022-10-11T04:48:41.943Z,89.6
2022-10-11T04:49:41.959Z,89.4
2022-10-11T04:50:41.976Z,89.3
2022-10-11T04:51:41.987Z,89.2
2022-10-11T04:52:42.003Z,89.5
2022-10-11T04:53:42.014Z,89.5
2022-10-11T04:54:42.035Z,89.5
2022-10-11T04:55:42.047Z,89.5
2022-10-11T04:56:42.062Z,89.5
2022-10-11T04:57:42.069Z,89.5
2022-10-11T04:58:42.087Z,89.5
2022-10-11T04:59:50.513Z,89.6
2022-10-11T05:00:42.120Z,89.6
2022-10-11T05:01:42.305Z,89.5
2022-10-11T05:02:42.143Z,89.5
2022-10-11T05:03:42.159Z,89.6
2022-10-11T05:04:42.170Z,89.6
2022-10-11T05:05:42.186Z,89.5
2022-10-11T05:06:42.199Z,89.6
2022-10-11T05:07:42.219Z,89.7
2022-10-11T05:08:42.226Z,89.6
2022-10-11T05:09:42.238Z,89.6
2022-10-11T05:10:42.263Z,89.6
2022-10-11T05:11:42.272Z,89.6
2022-10-11T05:12:42.279Z,89.7
2022-10-11T05:13:42.303Z,89.5
2022-10-11T05:14:42.314Z,89.5
2022-10-11T05:15:42.323Z,89.5
2022-10-11T05:16:42.328Z,89.5
2022-10-11T05:17:42.329Z,89.6
2022-10-11T05:18:42.352Z,89.4
2022-10-11T05:19:42.356Z,89.4
2022-10-11T05:20:42.376Z,89.4
2022-10-11T05:21:42.381Z,89.5
2022-10-11T05:22:42.387Z,89.5
2022-10-11T05:23:42.393Z,89.4
2022-10-11T05:24:42.409Z,89.4
2022-10-11T05:25:42.421Z,89.5
2022-10-11T05:26:42.436Z,89.5
2022-10-11T05:27:42.446Z,89.5
2022-10-11T05:28:42.788Z,89.5
2022-10-11T05:29:42.471Z,89.4
2022-10-11T05:30:42.493Z,89.4
2022-10-11T05:31:42.522Z,89.5
2022-10-11T05:32:42.503Z,89.5
2022-10-11T05:33:42.509Z,89.5
2022-10-11T05:34:42.517Z,89.5
2022-10-11T05:35:42.532Z,89.4
2022-10-11T05:36:42.546Z,89.4
2022-10-11T05:37:42.547Z,89.5
2022-10-11T05:38:42.561Z,89.5
2022-10-11T05:39:42.564Z,89.6
2022-10-11T05:40:42.588Z,89.6
2022-10-11T05:41:42.607Z,89.6
2022-10-11T05:42:42.620Z,89.7
2022-10-11T05:43:42.649Z,89.6
2022-10-11T05:44:42.665Z,89.6
2022-10-11T05:45:42.681Z,89.6
2022-10-11T05:46:42.670Z,89.7
2022-10-11T05:47:42.678Z,89.8
2022-10-11T05:48:42.712Z,89.8
2022-10-11T05:49:42.712Z,90.0
2022-10-11T05:50:42.734Z,90.1
2022-10-11T05:51:42.726Z,90.2
2022-10-11T05:52:42.752Z,90.3
2022-10-11T05:53:42.756Z,90.3
2022-10-11T05:54:42.765Z,90.3
2022-10-11T05:55:42.789Z,90.4
2022-10-11T05:56:42.801Z,90.3
2022-10-11T05:57:42.786Z,90.2
2022-10-11T05:58:42.812Z,90.2
2022-10-11T05:59:42.820Z,90.1
2022-10-11T06:00:42.844Z,90.3
2022-10-11T06:01:43.186Z,90.2
2022-10-11T06:02:42.876Z,90.3
2022-10-11T06:03:42.901Z,90.4
2022-10-11T06:04:42.911Z,90.4
2022-10-11T06:05:42.934Z,90.4
2022-10-11T06:06:42.957Z,90.4
2022-10-11T06:07:42.952Z,89.6
2022-10-11T06:08:42.984Z,89.8
2022-10-11T06:09:42.997Z,89.8
2022-10-11T06:10:43.001Z,89.7
2022-10-11T06:11:43.023Z,89.6
2022-10-11T06:12:43.032Z,89.5
2022-10-11T06:13:43.046Z,89.4
2022-10-11T06:14:43.060Z,89.2
2022-10-11T06:15:43.061Z,89.1
2022-10-11T06:16:43.069Z,89.1
2022-10-11T06:17:43.216Z,89.0
2022-10-11T06:18:43.083Z,89.0
2022-10-11T06:19:43.101Z,88.9
2022-10-11T06:20:43.112Z,88.9
2022-10-11T06:21:43.124Z,88.8
2022-10-11T06:22:43.128Z,88.8
2022-10-11T06:23:43.141Z,88.7
2022-10-11T06:24:43.186Z,88.7
2022-10-11T06:25:43.180Z,88.8
2022-10-11T06:26:43.180Z,88.8
2022-10-11T06:27:43.189Z,88.8
2022-10-11T06:28:43.444Z,88.9
2022-10-11T06:29:43.218Z,89.0
2022-10-11T06:30:43.221Z,88.9
2022-10-11T06:31:43.260Z,88.9
2022-10-11T06:32:43.246Z,88.9
2022-10-11T06:33:43.254Z,88.9
2022-10-11T06:34:43.278Z,88.9
2022-10-11T06:35:43.300Z,89.0
2022-10-11T06:36:43.310Z,88.9
2022-10-11T06:37:43.322Z,88.9
2022-10-11T06:38:45.683Z,88.8
2022-10-11T06:39:43.323Z,88.9
2022-10-11T06:40:43.350Z,88.9
2022-10-11T06:41:43.351Z,88.9
2022-10-11T06:42:43.378Z,88.8
2022-10-11T06:43:43.381Z,88.7
2022-10-11T06:44:43.399Z,88.7
2022-10-11T06:45:43.417Z,88.8
2022-10-11T06:46:43.419Z,88.8
2022-10-11T06:47:43.429Z,88.8
2022-10-11T06:48:43.451Z,88.8
2022-10-11T06:49:43.466Z,88.7
2022-10-11T06:51:00.784Z,88.6
2022-10-11T06:51:43.471Z,88.7
2022-10-11T06:52:43.483Z,88.7
2022-10-11T06:53:43.488Z,88.7
2022-10-11T06:54:45.333Z,88.8
2022-10-11T06:55:43.517Z,88.8
2022-10-11T06:56:43.567Z,88.7
2022-10-11T06:57:43.549Z,88.8
2022-10-11T06:58:43.574Z,88.8
2022-10-11T06:59:43.581Z,88.8
2022-10-11T07:00:43.721Z,88.8
2022-10-11T07:01:43.604Z,88.8
2022-10-11T07:02:43.606Z,88.9
2022-10-11T07:03:43.618Z,88.9
2022-10-11T07:04:43.628Z,88.9
2022-10-11T07:05:43.634Z,88.8
2022-10-11T07:06:43.649Z,88.8
2022-10-11T07:07:43.656Z,88.7
2022-10-11T07:08:43.674Z,88.7
2022-10-11T07:09:43.676Z,88.7
2022-10-11T07:10:43.696Z,88.7
2022-10-11T07:11:43.710Z,88.7
2022-10-11T07:12:43.719Z,88.7
2022-10-11T07:13:43.732Z,88.7
2022-10-11T07:14:43.739Z,88.6
2022-10-11T07:15:43.750Z,88.5
2022-10-11T07:16:43.753Z,88.6
2022-10-11T07:17:43.775Z,88.5
2022-10-11T07:18:43.782Z,88.4
2022-10-11T07:19:43.790Z,88.4
2022-10-11T07:20:43.841Z,88.4
2022-10-11T07:21:43.815Z,88.4
2022-10-11T07:22:43.820Z,88.4
2022-10-11T07:23:43.823Z,88.3
2022-10-11T07:24:43.840Z,88.3
2022-10-11T07:25:43.859Z,88.3
2022-10-11T07:26:43.857Z,88.3
2022-10-11T07:27:43.886Z,88.4
2022-10-11T07:28:44.142Z,88.4
2022-10-11T07:29:43.900Z,88.5
2022-10-11T07:30:43.914Z,88.4
2022-10-11T07:31:43.928Z,88.3
2022-10-11T07:32:43.989Z,88.4
2022-10-11T07:33:43.976Z,88.3
2022-10-11T07:34:43.958Z,88.4
2022-10-11T07:35:48.900Z,88.4
2022-10-11T07:36:43.969Z,88.3
2022-10-11T07:37:43.973Z,88.3
2022-10-11T07:38:44.076Z,88.3
2022-10-11T07:39:44.006Z,88.3
2022-10-11T07:40:44.008Z,88.3
2022-10-11T07:41:46.299Z,88.2
2022-10-11T07:42:44.053Z,88.3
2022-10-11T07:43:44.139Z,88.3
2022-10-11T07:44:44.077Z,88.3
2022-10-11T07:45:44.094Z,88.1
2022-10-11T07:46:44.099Z,88.2
2022-10-11T07:47:44.111Z,88.2
2022-10-11T07:48:44.108Z,88.1
2022-10-11T07:49:44.119Z,88.2
2022-10-11T07:50:44.139Z,88.2
2022-10-11T07:51:44.150Z,88.2
2022-10-11T07:52:44.158Z,88.2
2022-10-11T07:53:44.179Z,88.2
2022-10-11T07:54:44.181Z,88.1
2022-10-11T07:55:44.198Z,88.1
2022-10-11T07:56:44.214Z,88.1
2022-10-11T07:57:44.237Z,88.3
2022-10-11T07:58:44.251Z,88.2
2022-10-11T07:59:50.546Z,88.2
2022-10-11T08:00:44.260Z,88.3
2022-10-11T08:01:44.566Z,88.5
2022-10-11T08:02:44.295Z,88.4
2022-10-11T08:03:44.338Z,88.3
2022-10-11T08:04:44.316Z,87.8
2022-10-11T08:05:44.335Z,88.2
2022-10-11T08:06:44.384Z,88.2
2022-10-11T08:07:44.363Z,88.3
2022-10-11T08:08:44.370Z,87.8
2022-10-11T08:09:44.385Z,87.9
2022-10-11T08:10:44.529Z,87.5
2022-10-11T08:11:44.402Z,87.9
2022-10-11T08:12:44.423Z,87.9
2022-10-11T08:13:44.428Z,87.7
2022-10-11T08:14:44.432Z,87.6
2022-10-11T08:15:44.492Z,87.3
2022-10-11T08:16:44.477Z,87.4
2022-10-11T08:17:44.493Z,87.5
2022-10-11T08:18:44.499Z,87.5
2022-10-11T08:19:44.509Z,87.6
2022-10-11T08:20:44.530Z,87.6
2022-10-11T08:21:44.538Z,87.5
2022-10-11T08:22:44.607Z,87.7
2022-10-11T08:23:44.570Z,87.5
2022-10-11T08:24:44.586Z,87.5
2022-10-11T08:25:44.598Z,87.4
2022-10-11T08:26:44.616Z,87.5
2022-10-11T08:27:44.616Z,86.9
2022-10-11T08:28:44.995Z,87.3
2022-10-11T08:29:44.661Z,87.4
2022-10-11T08:30:44.656Z,87.3
2022-10-11T08:31:44.726Z,87.3
2022-10-11T08:32:44.670Z,87.3
2022-10-11T08:33:44.695Z,87.2
2022-10-11T08:34:44.687Z,87.1
2022-10-11T08:35:44.700Z,87.2
2022-10-11T08:36:44.709Z,87.2
2022-10-11T08:37:44.721Z,86.8
2022-10-11T08:38:44.724Z,87.2
2022-10-11T08:39:44.746Z,87.2
2022-10-11T08:40:44.760Z,86.9
2022-10-11T08:41:44.739Z,86.8
2022-10-11T08:42:44.745Z,87.0
2022-10-11T08:43:44.749Z,87.0
2022-10-11T08:45:12.394Z,86.8
2022-10-11T08:45:44.767Z,86.2
2022-10-11T08:46:44.776Z,86.2
2022-10-11T08:47:44.775Z,86.4
2022-10-11T08:48:44.788Z,86.0
2022-10-11T08:49:44.791Z,85.7
2022-10-11T08:50:44.795Z,85.2
2022-10-11T08:51:44.798Z,86.4
2022-10-11T08:52:44.815Z,86.4
2022-10-11T08:53:44.829Z,86.6
2022-10-11T08:54:44.839Z,85.5
2022-10-11T08:55:44.846Z,85.8
2022-10-11T08:56:44.845Z,86.2
2022-10-11T08:57:44.858Z,85.9
2022-10-11T08:58:44.871Z,85.4
2022-10-11T08:59:44.873Z,86.1
2022-10-11T09:00:44.889Z,86.4
2022-10-11T09:01:45.127Z,86.3
2022-10-11T09:03:09.156Z,86.4
2022-10-11T09:03:44.902Z,86.0
2022-10-11T09:04:44.906Z,86.0
2022-10-11T09:05:44.913Z,85.3
2022-10-11T09:06:44.932Z,85.4
2022-10-11T09:07:44.928Z,85.7
2022-10-11T09:08:44.941Z,85.8
2022-10-11T09:09:44.939Z,84.7
2022-10-11T09:10:44.950Z,85.1
2022-10-11T09:11:44.966Z,84.1
2022-10-11T09:12:44.962Z,84.0
2022-10-11T09:13:44.967Z,84.0
2022-10-11T09:14:44.975Z,84.5
2022-10-11T09:15:44.984Z,84.5
2022-10-11T09:16:44.996Z,84.5
2022-10-11T09:17:45.007Z,84.9
2022-10-11T09:18:45.005Z,84.9
2022-10-11T09:19:45.190Z,85.0
2022-10-11T09:20:45.015Z,84.1
2022-10-11T09:21:45.034Z,83.1
2022-10-11T09:22:45.033Z,83.5
2022-10-11T09:23:45.042Z,82.7
2022-10-11T09:24:45.053Z,83.3
2022-10-11T09:25:45.051Z,82.9
2022-10-11T09:26:45.068Z,82.1
2022-10-11T09:28:04.008Z,81.8
2022-10-11T09:28:45.349Z,82.4
2022-10-11T09:29:45.090Z,83.4
2022-10-11T09:30:45.100Z,82.9
2022-10-11T09:31:45.115Z,81.9
2022-10-11T09:32:45.109Z,82.9
2022-10-11T09:33:45.124Z,83.2
2022-10-11T09:34:45.130Z,82.8
2022-10-11T09:35:45.133Z,81.3
2022-10-11T09:36:45.151Z,79.1
2022-10-11T09:37:45.166Z,81.6
2022-10-11T09:38:45.162Z,79.5
2022-10-11T09:39:45.173Z,81.4
2022-10-11T09:40:45.180Z,80.9
2022-10-11T09:41:45.181Z,81.7
2022-10-11T09:42:45.194Z,78.9
2022-10-11T09:43:45.192Z,78.9
2022-10-11T09:44:45.214Z,78.3
2022-10-11T09:45:49.975Z,78.9
2022-10-11T09:46:45.224Z,79.1
2022-10-11T09:47:45.231Z,78.6
2022-10-11T09:48:45.252Z,76.3
2022-10-11T09:49:45.245Z,77.0
2022-10-11T09:50:45.276Z,74.4
2022-10-11T09:51:45.305Z,75.8
2022-10-11T09:52:45.269Z,76.6
2022-10-11T09:53:45.272Z,77.0
2022-10-11T09:54:45.286Z,73.7
2022-10-11T09:55:45.289Z,75.3
2022-10-11T09:56:45.301Z,75.5
2022-10-11T09:57:45.317Z,74.2
2022-10-11T09:58:45.307Z,74.4
2022-10-11T09:59:45.306Z,74.7
2022-10-11T10:00:45.329Z,73.0
2022-10-11T10:01:45.530Z,73.7
2022-10-11T10:02:45.345Z,73.4
2022-10-11T10:03:45.348Z,73.1
2022-10-11T10:04:45.339Z,70.3
2022-10-11T10:05:45.353Z,70.5
2022-10-11T10:06:45.357Z,69.3
2022-10-11T10:07:45.361Z,69.9
2022-10-11T10:08:45.368Z,68.2
2022-10-11T10:09:45.367Z,68.2
2022-10-11T10:10:45.402Z,66.7
2022-10-11T10:11:45.384Z,65.3
2022-10-11T10:12:45.388Z,65.3
2022-10-11T10:13:45.397Z,65.0
2022-10-11T10:14:45.404Z,63.3
2022-10-11T10:15:45.409Z,62.5
2022-10-11T10:16:45.410Z,62.8
2022-10-11T10:17:45.418Z,62.3
2022-10-11T10:18:45.422Z,61.9
2022-10-11T10:19:45.590Z,62.0
2022-10-11T10:20:45.438Z,61.8
2022-10-11T10:21:45.447Z,61.7
2022-10-11T10:22:45.452Z,61.8
2022-10-11T10:23:45.464Z,62.9
2022-10-11T10:24:45.473Z,62.0
2022-10-11T10:25:45.469Z,62.7
2022-10-11T10:26:45.490Z,61.9
2022-10-11T10:27:45.507Z,62.3
2022-10-11T10:28:45.674Z,62.6
2022-10-11T10:29:45.500Z,63.1
2022-10-11T10:30:45.503Z,63.7
2022-10-11T10:32:48.967Z,63.8
2022-10-11T10:33:45.523Z,64.0
2022-10-11T10:34:45.520Z,64.2
2022-10-11T10:35:45.581Z,64.1
2022-10-11T10:36:45.533Z,64.1
2022-10-11T10:37:45.547Z,64.2
2022-10-11T10:38:52.581Z,63.5
2022-10-11T10:39:45.555Z,64.0
2022-10-11T10:40:45.569Z,63.4
2022-10-11T10:41:45.585Z,62.7
2022-10-11T10:42:45.584Z,63.6
2022-10-11T10:43:45.591Z,63.4
2022-10-11T10:44:45.595Z,62.7
2022-10-11T10:45:45.600Z,62.2
2022-10-11T10:46:45.606Z,62.8
2022-10-11T10:47:45.723Z,62.1
2022-10-11T10:49:55.489Z,62.6
2022-10-11T10:50:45.653Z,62.6
2022-10-11T10:51:45.654Z,62.6
2022-10-11T10:52:45.671Z,60.6
2022-10-11T10:53:45.667Z,61.2
2022-10-11T10:54:45.682Z,60.9
2022-10-11T10:55:45.684Z,60.3
2022-10-11T10:56:45.695Z,60.8
2022-10-11T10:57:45.712Z,60.4
2022-10-11T10:58:45.711Z,61.0
2022-10-11T10:59:45.712Z,60.6
2022-10-11T11:00:45.732Z,60.9
2022-10-11T11:01:45.998Z,60.2
2022-10-11T11:02:46.087Z,60.5
2022-10-11T11:03:45.743Z,60.5
2022-10-11T11:04:45.862Z,61.0
2022-10-11T11:05:45.755Z,61.4
2022-10-11T11:06:45.766Z,61.0
2022-10-11T11:07:45.778Z,61.0
2022-10-11T11:08:45.784Z,61.2
2022-10-11T11:09:45.787Z,61.3
2022-10-11T11:10:45.804Z,61.1
2022-10-11T11:11:45.809Z,61.8
2022-10-11T11:12:45.814Z,62.4
2022-10-11T11:13:45.820Z,62.5
2022-10-11T11:14:45.832Z,62.2
2022-10-11T11:15:45.838Z,63.1
2022-10-11T11:16:45.853Z,63.3
2022-10-11T11:17:45.854Z,63.0
2022-10-11T11:18:45.873Z,63.4
2022-10-11T11:19:45.880Z,63.1
2022-10-11T11:20:45.887Z,62.7
2022-10-11T11:21:45.879Z,62.2
2022-10-11T11:22:45.890Z,62.0
2022-10-11T11:23:45.901Z,62.6
2022-10-11T11:24:45.955Z,63.0
2022-10-11T11:25:45.906Z,62.9
2022-10-11T11:26:45.918Z,61.8
2022-10-11T11:27:45.919Z,61.8
2022-10-11T11:28:46.056Z,62.6
2022-10-11T11:29:45.940Z,62.3
2022-10-11T11:30:45.943Z,61.3
2022-10-11T11:31:45.953Z,61.3
2022-10-11T11:32:46.146Z,61.9
2022-10-11T11:33:49.228Z,61.3
2022-10-11T11:34:45.964Z,62.2
2022-10-11T11:35:45.984Z,62.2
2022-10-11T11:36:46.099Z,61.4
2022-10-11T11:37:45.980Z,62.4
2022-10-11T11:38:45.987Z,61.4
2022-10-11T11:39:45.989Z,60.9
2022-10-11T11:40:45.997Z,61.2
2022-10-11T11:41:46.001Z,60.9
2022-10-11T11:42:46.002Z,60.3
2022-10-11T11:43:46.008Z,60.0
2022-10-11T11:44:46.020Z,60.7
2022-10-11T11:45:46.156Z,59.7
2022-10-11T11:46:46.033Z,60.3
2022-10-11T11:47:46.042Z,60.1
2022-10-11T11:48:46.145Z,59.9
2022-10-11T11:49:46.105Z,60.0
2022-10-11T11:50:46.074Z,60.4
2022-10-11T11:51:46.084Z,60.7
2022-10-11T11:52:46.083Z,61.7
2022-10-11T11:53:46.089Z,61.8
2022-10-11T11:54:46.096Z,61.8
2022-10-11T11:55:46.106Z,62.0
2022-10-11T11:56:46.109Z,61.4
2022-10-11T11:57:46.123Z,61.3
2022-10-11T11:58:46.157Z,62.1
2022-10-11T11:59:46.126Z,62.4
2022-10-11T12:00:46.142Z,62.0
2022-10-11T12:01:46.336Z,61.6
2022-10-11T12:02:46.150Z,61.3
2022-10-11T12:03:46.150Z,60.5
2022-10-11T12:04:46.169Z,61.1
2022-10-11T12:05:46.174Z,61.4
2022-10-11T12:07:46.189Z,60.5
2022-10-11T12:08:46.184Z,60.7
2022-10-11T12:09:46.199Z,60.9
2022-10-11T12:10:46.196Z,60.1
2022-10-11T12:11:46.216Z,58.4
2022-10-11T12:12:46.216Z,59.1
2022-10-11T12:13:46.212Z,59.5
2022-10-11T12:14:46.240Z,60.3
2022-10-11T12:15:46.234Z,60.9
2022-10-11T12:16:46.235Z,60.9
2022-10-11T12:17:46.242Z,60.6
2022-10-11T12:18:46.245Z,61.1
2022-10-11T12:19:46.267Z,61.3
2022-10-11T12:20:46.263Z,61.8
2022-10-11T12:21:46.273Z,62.1
2022-10-11T12:22:46.276Z,62.1
2022-10-11T12:23:46.295Z,61.7
2022-10-11T12:24:46.285Z,61.5
2022-10-11T12:25:46.295Z,62.1
2022-10-11T12:26:46.299Z,61.4
2022-10-11T12:27:46.306Z,61.7
2022-10-11T12:28:46.507Z,61.9
2022-10-11T12:29:46.319Z,62.3
2022-10-11T12:30:46.325Z,62.1
2022-10-11T12:31:46.553Z,62.1
2022-10-11T12:32:46.348Z,62.6
2022-10-11T12:33:46.350Z,62.5
2022-10-11T12:34:46.361Z,62.8
2022-10-11T12:35:46.372Z,62.9
2022-10-11T12:36:46.373Z,62.4
2022-10-11T12:37:46.376Z,60.8
2022-10-11T12:38:46.386Z,60.6
2022-10-11T12:39:46.416Z,60.7
2022-10-11T12:40:46.410Z,61.0
2022-10-11T12:41:46.418Z,61.7
2022-10-11T12:42:46.416Z,60.0
2022-10-11T12:43:46.432Z,59.9
2022-10-11T12:44:46.453Z,60.4
2022-10-11T12:45:46.463Z,59.8
2022-10-11T12:46:46.472Z,58.2
2022-10-11T12:47:46.463Z,58.1
2022-10-11T12:48:46.475Z,59.2
2022-10-11T12:49:46.476Z,57.9
2022-10-11T12:50:46.496Z,58.9
2022-10-11T12:51:46.513Z,57.8
2022-10-11T12:52:46.531Z,57.7
2022-10-11T12:54:25.807Z,58.3
2022-10-11T12:54:46.514Z,58.6
2022-10-11T12:55:46.522Z,58.6
2022-10-11T12:56:46.538Z,58.5
2022-10-11T12:57:46.872Z,58.5
2022-10-11T12:58:46.560Z,58.9
2022-10-11T12:59:46.552Z,57.2
2022-10-11T13:00:46.967Z,57.6
2022-10-11T13:01:46.831Z,58.1
2022-10-11T13:02:46.576Z,57.9
2022-10-11T13:03:46.592Z,56.9
2022-10-11T13:04:46.585Z,56.5
2022-10-11T13:05:54.142Z,57.3
2022-10-11T13:06:46.605Z,56.1
2022-10-11T13:07:46.602Z,56.7
2022-10-11T13:08:46.606Z,56.0
2022-10-11T13:09:49.410Z,55.8
2022-10-11T13:10:46.626Z,55.8
2022-10-11T13:11:46.638Z,56.2
2022-10-11T13:12:46.643Z,56.7
2022-10-11T13:13:46.647Z,56.6
2022-10-11T13:14:46.649Z,55.4
2022-10-11T13:15:46.651Z,55.6
2022-10-11T13:16:46.662Z,56.6
2022-10-11T13:17:46.679Z,56.7
2022-10-11T13:18:46.675Z,56.3
2022-10-11T13:19:46.695Z,56.7
2022-10-11T13:20:46.700Z,57.0
2022-10-11T13:21:46.715Z,57.6
2022-10-11T13:22:46.720Z,57.2
2022-10-11T13:23:46.725Z,57.4
2022-10-11T13:24:46.731Z,57.6
2022-10-11T13:25:46.737Z,57.6
2022-10-11T13:26:46.736Z,58.1
2022-10-11T13:27:46.755Z,58.5
2022-10-11T13:28:46.908Z,58.1
2022-10-11T13:29:46.767Z,58.5
2022-10-11T13:30:46.775Z,58.5
2022-10-11T13:31:46.793Z,58.3
2022-10-11T13:32:46.796Z,58.2
2022-10-11T13:33:46.811Z,57.6
2022-10-11T13:34:47.011Z,57.3
2022-10-11T13:35:46.810Z,57.5
2022-10-11T13:36:46.824Z,57.0
2022-10-11T13:37:46.832Z,57.3
2022-10-11T13:38:46.842Z,57.3
2022-10-11T13:39:46.840Z,57.7